createdAt,value
2023-01-29T16:18:28.699Z,2.40
2023-01-29T16:20:57.127Z,2.47
2023-01-29T16:23:28.046Z,2.80
2023-01-29T16:25:57.685Z,2.60
2023-01-29T16:28:24.395Z,2.63
2023-01-29T16:30:58.832Z,2.53
2023-01-29T16:33:35.999Z,2.72
2023-01-29T16:36:11.644Z,2.70
2023-01-29T16:38:43.117Z,2.50
2023-01-29T16:41:31.016Z,2.80
2023-01-29T16:44:20.841Z,2.42
2023-01-29T16:46:51.198Z,2.72
2023-01-29T16:49:43.348Z,2.47
2023-01-29T16:52:35.407Z,2.45
2023-01-29T16:55:21.465Z,2.53
2023-01-29T16:57:54.901Z,2.70
2023-01-29T17:00:27.451Z,2.75
2023-01-29T17:03:07.069Z,2.60
2023-01-29T17:05:36.802Z,2.40
2023-01-29T17:08:04.500Z,2.50
2023-01-29T17:10:32.009Z,2.80
2023-01-29T17:13:09.983Z,2.35
2023-01-29T17:15:45.559Z,2.67
2023-01-29T17:18:21.433Z,2.88
2023-01-29T17:20:49.274Z,2.55
2023-01-29T17:23:16.073Z,2.45
2023-01-29T17:25:43.744Z,2.60
2023-01-29T17:28:15.573Z,3.03
2023-01-29T17:30:43.517Z,2.35
2023-01-29T17:33:16.445Z,2.47
2023-01-29T17:38:25.576Z,2.72
2023-01-29T17:40:58.638Z,2.65
2023-01-29T17:43:25.450Z,2.80
2023-01-29T17:45:52.166Z,2.55
2023-01-29T17:48:23.319Z,3.28
2023-01-29T17:50:53.568Z,3.20
2023-01-29T17:53:26.583Z,3.05
2023-01-29T17:55:57.162Z,3.20
2023-01-29T17:58:26.360Z,3.70
2023-01-29T18:00:54.244Z,2.83
2023-01-29T18:03:22.325Z,3.00
2023-01-29T18:05:50.177Z,2.78
2023-01-29T18:08:26.516Z,3.13
2023-01-29T18:10:53.167Z,3.05
2023-01-29T18:13:20.020Z,2.85
2023-01-29T18:15:46.977Z,3.10
2023-01-29T18:18:15.738Z,2.95
2023-01-29T18:20:42.426Z,2.92
2023-01-29T18:23:09.348Z,2.72
2023-01-29T18:25:36.098Z,3.00
2023-01-29T18:28:03.986Z,3.13
2023-01-29T18:30:31.593Z,3.47
2023-01-29T18:32:58.422Z,2.72
2023-01-29T18:35:25.893Z,3.00
2023-01-29T18:37:52.680Z,2.95
2023-01-29T18:40:19.514Z,3.83
2023-01-29T18:42:47.099Z,3.25
2023-01-29T18:45:15.529Z,3.28
2023-01-29T18:47:42.498Z,3.80
2023-01-29T18:50:10.531Z,3.67
2023-01-29T18:52:37.275Z,3.22
2023-01-29T18:55:04.198Z,3.15
2023-01-29T18:58:26.655Z,3.15
2023-01-29T19:00:17.996Z,3.33
2023-01-29T19:02:45.649Z,3.58
2023-01-29T19:05:12.643Z,3.58
2023-01-29T19:07:39.461Z,3.47
2023-01-29T19:10:09.224Z,3.50
2023-01-29T19:12:36.001Z,4.00
2023-01-29T19:15:02.668Z,4.15
2023-01-29T19:17:29.442Z,4.15
2023-01-29T19:20:01.969Z,3.70
2023-01-29T19:22:29.567Z,4.35
2023-01-29T19:24:56.336Z,4.30
2023-01-29T19:27:23.249Z,3.97
2023-01-29T19:29:50.965Z,3.88
2023-01-29T19:32:17.868Z,3.70
2023-01-29T19:34:45.008Z,3.95
2023-01-29T19:37:11.685Z,4.00
2023-01-29T19:39:38.566Z,4.10
2023-01-29T19:42:05.376Z,3.90
2023-01-29T19:44:32.317Z,3.90
2023-01-29T19:46:59.114Z,4.28
2023-01-29T19:49:26.480Z,3.53
2023-01-29T19:51:55.905Z,3.60
2023-01-29T19:54:22.532Z,3.63
2023-01-29T19:56:49.339Z,3.90
2023-01-29T19:59:15.983Z,3.60
2023-01-29T20:01:42.728Z,3.45
2023-01-29T20:04:09.384Z,3.53
2023-01-29T20:06:36.035Z,3.67
2023-01-29T20:09:03.110Z,3.95
2023-01-29T20:11:30.749Z,3.85
2023-01-29T20:13:57.912Z,3.38
2023-01-29T20:16:25.585Z,3.72
2023-01-29T20:18:52.571Z,3.63
2023-01-29T20:21:21.997Z,3.75
2023-01-29T20:23:50.362Z,3.58
2023-01-29T20:26:17.207Z,4.18
2023-01-29T20:28:46.978Z,3.97
2023-01-29T20:31:14.966Z,3.72
2023-01-29T20:33:42.291Z,3.55
2023-01-29T20:36:10.806Z,3.92
2023-01-29T20:38:37.905Z,4.03
2023-01-29T20:41:10.339Z,3.83
2023-01-29T20:43:37.118Z,3.55
2023-01-29T20:46:04.830Z,3.45
2023-01-29T20:48:32.163Z,3.67
2023-01-29T20:51:15.401Z,3.70
2023-01-29T20:53:45.401Z,3.97
2023-01-29T20:56:13.443Z,3.45
2023-01-29T20:58:43.338Z,4.22
2023-01-29T21:01:12.083Z,3.95
2023-01-29T21:03:39.791Z,3.92
2023-01-29T21:06:07.404Z,3.63
2023-01-29T21:08:35.280Z,3.03
2023-01-29T21:11:02.978Z,3.53
2023-01-29T21:13:29.653Z,3.60
2023-01-29T21:15:56.490Z,3.58
2023-01-29T21:18:25.691Z,3.50
2023-01-29T21:20:53.068Z,3.80
2023-01-29T21:23:20.074Z,3.67
2023-01-29T21:25:46.843Z,3.60
2023-01-29T21:28:15.231Z,4.10
2023-01-29T21:30:42.186Z,3.35
2023-01-29T21:33:08.973Z,3.47
2023-01-29T21:35:37.626Z,3.75
2023-01-29T21:38:04.936Z,3.60
2023-01-29T21:40:32.098Z,3.50
2023-01-29T21:43:15.925Z,4.57
2023-01-29T21:45:43.308Z,3.75
2023-01-29T21:48:11.621Z,3.45
2023-01-29T21:50:38.649Z,3.63
2023-01-29T21:53:05.593Z,3.42
2023-01-29T21:55:32.901Z,3.50
2023-01-29T21:58:00.357Z,3.35
2023-01-29T22:00:27.388Z,3.88
2023-01-29T22:02:54.245Z,3.85
2023-01-29T22:05:20.961Z,3.63
2023-01-29T22:07:48.764Z,3.30
2023-01-29T22:10:17.600Z,3.42
2023-01-29T22:12:44.879Z,3.85
2023-01-29T22:15:12.702Z,3.35
2023-01-29T22:17:41.367Z,3.70
2023-01-29T22:20:10.174Z,3.55
2023-01-29T22:22:36.847Z,3.28
2023-01-29T22:25:04.381Z,3.35
2023-01-29T22:27:33.465Z,3.15
2023-01-29T22:30:00.737Z,3.70
2023-01-29T22:32:27.533Z,3.50
2023-01-29T22:34:54.406Z,3.90
2023-01-29T22:37:21.134Z,3.65
2023-01-29T22:39:47.856Z,3.70
2023-01-29T22:42:14.542Z,3.58
2023-01-29T22:44:41.407Z,3.40
2023-01-29T22:47:08.161Z,3.70
2023-01-29T22:49:34.849Z,3.65
2023-01-29T22:52:10.696Z,3.80
2023-01-29T22:54:42.334Z,4.50
2023-01-29T22:59:40.414Z,5.13
2023-01-29T23:02:07.762Z,4.88
2023-01-29T23:04:34.657Z,5.43
2023-01-29T23:07:01.420Z,4.65
2023-01-29T23:09:28.151Z,4.93
2023-01-29T23:11:54.882Z,5.47
2023-01-29T23:14:21.612Z,5.70
2023-01-29T23:16:48.264Z,5.13
2023-01-29T23:19:14.940Z,5.00
2023-01-29T23:21:41.657Z,5.60
2023-01-29T23:24:08.882Z,5.22
2023-01-29T23:27:14.258Z,4.75
2023-01-29T23:29:46.024Z,4.95
2023-01-29T23:32:18.144Z,4.95
2023-01-29T23:34:44.871Z,5.75
2023-01-29T23:37:11.846Z,4.68
2023-01-29T23:39:38.563Z,4.78
2023-01-29T23:42:05.352Z,4.43
2023-01-29T23:44:32.071Z,4.72
2023-01-29T23:46:59.161Z,5.10
2023-01-29T23:49:25.977Z,4.95
2023-01-29T23:51:52.733Z,4.80
2023-01-29T23:54:19.449Z,4.43
2023-01-29T23:56:46.316Z,4.70
2023-01-29T23:59:13.168Z,4.40
